sensor_id;sensor_type;location;lat;lon;timestamp;P1;durP1;ratioP1;P2;durP2;ratioP2
58252;SDS011;44050;48.884;8.762;2023-01-08T00:04:37;1.13;;;1.10;;
58252;SDS011;44050;48.884;8.762;2023-01-08T00:07:08;0.95;;;0.95;;
58252;SDS011;44050;48.884;8.762;2023-01-08T00:09:39;1.13;;;1.00;;
58252;SDS011;44050;48.884;8.762;2023-01-08T00:12:09;2.15;;;1.25;;
58252;SDS011;44050;48.884;8.762;2023-01-08T00:14:40;2.33;;;1.50;;
58252;SDS011;44050;48.884;8.762;2023-01-08T00:17:11;2.40;;;1.25;;
58252;SDS011;44050;48.884;8.762;2023-01-08T00:19:41;1.58;;;1.48;;
58252;SDS011;44050;48.884;8.762;2023-01-08T00:22:12;2.35;;;2.13;;
58252;SDS011;44050;48.884;8.762;2023-01-08T00:24:43;1.33;;;1.23;;
58252;SDS011;44050;48.884;8.762;2023-01-08T00:27:14;1.13;;;1.13;;
58252;SDS011;44050;48.884;8.762;2023-01-08T00:29:44;3.22;;;1.52;;
58252;SDS011;44050;48.884;8.762;2023-01-08T00:32:15;3.95;;;1.40;;
58252;SDS011;44050;48.884;8.762;2023-01-08T00:34:46;1.98;;;1.60;;
58252;SDS011;44050;48.884;8.762;2023-01-08T00:37:17;1.45;;;1.10;;
58252;SDS011;44050;48.884;8.762;2023-01-08T00:39:49;1.58;;;1.48;;
58252;SDS011;44050;48.884;8.762;2023-01-08T00:42:20;3.05;;;1.75;;
58252;SDS011;44050;48.884;8.762;2023-01-08T00:44:51;1.42;;;1.33;;
58252;SDS011;44050;48.884;8.762;2023-01-08T00:47:21;2.47;;;1.45;;
58252;SDS011;44050;48.884;8.762;2023-01-08T00:49:52;1.83;;;1.67;;
58252;SDS011;44050;48.884;8.762;2023-01-08T00:52:23;2.00;;;1.02;;
58252;SDS011;44050;48.884;8.762;2023-01-08T00:54:54;1.60;;;1.20;;
58252;SDS011;44050;48.884;8.762;2023-01-08T00:57:24;1.20;;;1.02;;
58252;SDS011;44050;48.884;8.762;2023-01-08T00:59:55;1.42;;;1.33;;
58252;SDS011;44050;48.884;8.762;2023-01-08T01:02:26;1.13;;;1.13;;
58252;SDS011;44050;48.884;8.762;2023-01-08T01:04:57;1.20;;;1.20;;
58252;SDS011;44050;48.884;8.762;2023-01-08T01:07:28;2.03;;;1.92;;
58252;SDS011;44050;48.884;8.762;2023-01-08T01:09:58;1.40;;;1.30;;
58252;SDS011;44050;48.884;8.762;2023-01-08T01:12:29;2.38;;;1.73;;
58252;SDS011;44050;48.884;8.762;2023-01-08T01:15:00;0.93;;;0.90;;
58252;SDS011;44050;48.884;8.762;2023-01-08T01:17:31;2.20;;;1.23;;
58252;SDS011;44050;48.884;8.762;2023-01-08T01:20:02;1.45;;;1.38;;
58252;SDS011;44050;48.884;8.762;2023-01-08T01:22:33;1.50;;;1.40;;
58252;SDS011;44050;48.884;8.762;2023-01-08T01:25:04;1.42;;;1.20;;
58252;SDS011;44050;48.884;8.762;2023-01-08T01:27:34;1.85;;;1.13;;
58252;SDS011;44050;48.884;8.762;2023-01-08T01:30:05;1.65;;;1.52;;
58252;SDS011;44050;48.884;8.762;2023-01-08T01:32:36;1.80;;;1.33;;
58252;SDS011;44050;48.884;8.762;2023-01-08T01:35:07;1.40;;;1.33;;
58252;SDS011;44050;48.884;8.762;2023-01-08T01:37:38;29.45;;;2.47;;
58252;SDS011;44050;48.884;8.762;2023-01-08T01:40:10;2.55;;;1.60;;
58252;SDS011;44050;48.884;8.762;2023-01-08T01:42:41;0.85;;;0.85;;
58252;SDS011;44050;48.884;8.762;2023-01-08T01:53:11;2.25;;;1.42;;
58252;SDS011;44050;48.884;8.762;2023-01-08T01:55:42;1.05;;;1.05;;
58252;SDS011;44050;48.884;8.762;2023-01-08T02:00:44;2.20;;;1.23;;
58252;SDS011;44050;48.884;8.762;2023-01-08T02:03:15;3.08;;;1.50;;
58252;SDS011;44050;48.884;8.762;2023-01-08T02:11:09;2.25;;;1.48;;
58252;SDS011;44050;48.884;8.762;2023-01-08T02:13:42;1.30;;;1.20;;
58252;SDS011;44050;48.884;8.762;2023-01-08T02:16:22;1.30;;;1.25;;
58252;SDS011;44050;48.884;8.762;2023-01-08T02:18:56;1.00;;;1.00;;
58252;SDS011;44050;48.884;8.762;2023-01-08T02:21:40;1.98;;;1.33;;
58252;SDS011;44050;48.884;8.762;2023-01-08T02:24:28;2.80;;;1.08;;
58252;SDS011;44050;48.884;8.762;2023-01-08T02:27:01;2.03;;;1.88;;
58252;SDS011;44050;48.884;8.762;2023-01-08T02:29:33;1.13;;;1.02;;
58252;SDS011;44050;48.884;8.762;2023-01-08T02:32:04;2.08;;;1.85;;
58252;SDS011;44050;48.884;8.762;2023-01-08T02:34:35;0.80;;;0.80;;
58252;SDS011;44050;48.884;8.762;2023-01-08T02:37:06;1.27;;;1.10;;
58252;SDS011;44050;48.884;8.762;2023-01-08T02:47:55;1.45;;;1.30;;
58252;SDS011;44050;48.884;8.762;2023-01-08T02:50:32;2.30;;;1.40;;
58252;SDS011;44050;48.884;8.762;2023-01-08T02:55:41;4.65;;;1.80;;
58252;SDS011;44050;48.884;8.762;2023-01-08T02:58:14;1.50;;;1.40;;
58252;SDS011;44050;48.884;8.762;2023-01-08T03:00:45;1.27;;;1.10;;
58252;SDS011;44050;48.884;8.762;2023-01-08T03:03:18;2.35;;;1.52;;
58252;SDS011;44050;48.884;8.762;2023-01-08T03:05:52;4.45;;;1.40;;
58252;SDS011;44050;48.884;8.762;2023-01-08T03:08:23;4.70;;;2.03;;
58252;SDS011;44050;48.884;8.762;2023-01-08T03:10:55;1.50;;;1.10;;
58252;SDS011;44050;48.884;8.762;2023-01-08T03:13:31;1.38;;;1.27;;
58252;SDS011;44050;48.884;8.762;2023-01-08T03:16:05;2.15;;;1.58;;
58252;SDS011;44050;48.884;8.762;2023-01-08T03:18:39;1.27;;;1.17;;
58252;SDS011;44050;48.884;8.762;2023-01-08T03:21:12;2.50;;;1.52;;
58252;SDS011;44050;48.884;8.762;2023-01-08T03:23:43;2.38;;;1.48;;
58252;SDS011;44050;48.884;8.762;2023-01-08T03:26:16;1.13;;;0.95;;
58252;SDS011;44050;48.884;8.762;2023-01-08T03:28:48;1.55;;;1.45;;
58252;SDS011;44050;48.884;8.762;2023-01-08T03:31:20;3.35;;;1.92;;
58252;SDS011;44050;48.884;8.762;2023-01-08T03:33:52;1.33;;;1.20;;
58252;SDS011;44050;48.884;8.762;2023-01-08T03:36:24;0.98;;;0.98;;
58252;SDS011;44050;48.884;8.762;2023-01-08T03:39:07;1.02;;;0.93;;
58252;SDS011;44050;48.884;8.762;2023-01-08T03:41:39;1.50;;;1.38;;
58252;SDS011;44050;48.884;8.762;2023-01-08T03:46:43;1.03;;;0.70;;
58252;SDS011;44050;48.884;8.762;2023-01-08T03:49:15;1.50;;;1.40;;
58252;SDS011;44050;48.884;8.762;2023-01-08T03:51:46;1.00;;;0.88;;
58252;SDS011;44050;48.884;8.762;2023-01-08T03:54:18;1.35;;;1.15;;
58252;SDS011;44050;48.884;8.762;2023-01-08T03:56:49;2.13;;;1.20;;
58252;SDS011;44050;48.884;8.762;2023-01-08T03:59:20;1.85;;;1.10;;
58252;SDS011;44050;48.884;8.762;2023-01-08T04:01:51;1.30;;;1.23;;
58252;SDS011;44050;48.884;8.762;2023-01-08T04:04:22;0.80;;;0.80;;
58252;SDS011;44050;48.884;8.762;2023-01-08T04:06:52;4.50;;;1.40;;
58252;SDS011;44050;48.884;8.762;2023-01-08T04:09:23;2.83;;;1.60;;
58252;SDS011;44050;48.884;8.762;2023-01-08T04:11:54;0.70;;;0.70;;
58252;SDS011;44050;48.884;8.762;2023-01-08T04:14:25;2.10;;;1.30;;
58252;SDS011;44050;48.884;8.762;2023-01-08T04:16:57;1.33;;;1.13;;
58252;SDS011;44050;48.884;8.762;2023-01-08T04:19:27;0.90;;;0.90;;
58252;SDS011;44050;48.884;8.762;2023-01-08T04:21:58;0.98;;;0.95;;
58252;SDS011;44050;48.884;8.762;2023-01-08T04:24:29;2.47;;;1.00;;
58252;SDS011;44050;48.884;8.762;2023-01-08T04:26:59;1.85;;;1.73;;
58252;SDS011;44050;48.884;8.762;2023-01-08T04:29:30;0.75;;;0.75;;
58252;SDS011;44050;48.884;8.762;2023-01-08T04:32:01;1.05;;;0.95;;
58252;SDS011;44050;48.884;8.762;2023-01-08T04:34:31;1.98;;;1.05;;
58252;SDS011;44050;48.884;8.762;2023-01-08T04:37:02;1.00;;;0.95;;
58252;SDS011;44050;48.884;8.762;2023-01-08T04:39:33;1.13;;;1.08;;
58252;SDS011;44050;48.884;8.762;2023-01-08T04:42:04;0.98;;;0.90;;
58252;SDS011;44050;48.884;8.762;2023-01-08T04:44:34;0.57;;;0.52;;
58252;SDS011;44050;48.884;8.762;2023-01-08T04:47:05;0.85;;;0.82;;
58252;SDS011;44050;48.884;8.762;2023-01-08T04:49:36;0.98;;;0.90;;
58252;SDS011;44050;48.884;8.762;2023-01-08T04:52:06;1.58;;;1.13;;
58252;SDS011;44050;48.884;8.762;2023-01-08T04:54:37;0.60;;;0.60;;
58252;SDS011;44050;48.884;8.762;2023-01-08T04:57:08;0.68;;;0.68;;
58252;SDS011;44050;48.884;8.762;2023-01-08T04:59:39;0.70;;;0.70;;
58252;SDS011;44050;48.884;8.762;2023-01-08T05:02:10;0.90;;;0.90;;
58252;SDS011;44050;48.884;8.762;2023-01-08T05:04:40;0.50;;;0.50;;
58252;SDS011;44050;48.884;8.762;2023-01-08T05:07:11;1.42;;;1.10;;
58252;SDS011;44050;48.884;8.762;2023-01-08T05:09:42;1.17;;;0.98;;
58252;SDS011;44050;48.884;8.762;2023-01-08T05:12:12;1.40;;;0.63;;
58252;SDS011;44050;48.884;8.762;2023-01-08T05:14:43;1.10;;;0.93;;
58252;SDS011;44050;48.884;8.762;2023-01-08T05:17:14;0.55;;;0.55;;
58252;SDS011;44050;48.884;8.762;2023-01-08T05:19:44;0.88;;;0.88;;
58252;SDS011;44050;48.884;8.762;2023-01-08T05:22:15;1.38;;;0.70;;
58252;SDS011;44050;48.884;8.762;2023-01-08T05:24:46;0.77;;;0.77;;
58252;SDS011;44050;48.884;8.762;2023-01-08T05:27:16;1.02;;;0.90;;
58252;SDS011;44050;48.884;8.762;2023-01-08T05:29:47;1.73;;;1.15;;
58252;SDS011;44050;48.884;8.762;2023-01-08T05:32:18;1.05;;;0.68;;
58252;SDS011;44050;48.884;8.762;2023-01-08T05:34:48;1.80;;;1.70;;
58252;SDS011;44050;48.884;8.762;2023-01-08T05:37:19;1.88;;;1.00;;
58252;SDS011;44050;48.884;8.762;2023-01-08T05:39:50;0.75;;;0.65;;
58252;SDS011;44050;48.884;8.762;2023-01-08T05:42:21;1.55;;;0.75;;
58252;SDS011;44050;48.884;8.762;2023-01-08T05:44:52;0.63;;;0.63;;
58252;SDS011;44050;48.884;8.762;2023-01-08T05:47:22;2.53;;;1.67;;
58252;SDS011;44050;48.884;8.762;2023-01-08T05:49:53;0.70;;;0.70;;
58252;SDS011;44050;48.884;8.762;2023-01-08T05:52:24;0.80;;;0.80;;
58252;SDS011;44050;48.884;8.762;2023-01-08T05:54:55;0.55;;;0.55;;
58252;SDS011;44050;48.884;8.762;2023-01-08T05:57:26;1.60;;;1.40;;
58252;SDS011;44050;48.884;8.762;2023-01-08T05:59:56;0.77;;;0.77;;
58252;SDS011;44050;48.884;8.762;2023-01-08T06:02:27;1.52;;;0.70;;
58252;SDS011;44050;48.884;8.762;2023-01-08T06:04:58;0.80;;;0.80;;
58252;SDS011;44050;48.884;8.762;2023-01-08T06:07:29;0.52;;;0.52;;
58252;SDS011;44050;48.884;8.762;2023-01-08T06:09:59;1.17;;;1.05;;
58252;SDS011;44050;48.884;8.762;2023-01-08T06:12:30;2.28;;;1.13;;
58252;SDS011;44050;48.884;8.762;2023-01-08T06:15:01;1.20;;;0.98;;
58252;SDS011;44050;48.884;8.762;2023-01-08T06:17:33;0.40;;;0.40;;
58252;SDS011;44050;48.884;8.762;2023-01-08T06:20:04;0.80;;;0.80;;
58252;SDS011;44050;48.884;8.762;2023-01-08T06:22:35;0.77;;;0.70;;
58252;SDS011;44050;48.884;8.762;2023-01-08T06:25:06;3.03;;;0.55;;
58252;SDS011;44050;48.884;8.762;2023-01-08T06:27:37;0.77;;;0.57;;
58252;SDS011;44050;48.884;8.762;2023-01-08T06:30:08;0.90;;;0.73;;
58252;SDS011;44050;48.884;8.762;2023-01-08T06:32:39;0.30;;;0.30;;
58252;SDS011;44050;48.884;8.762;2023-01-08T06:35:09;0.50;;;0.50;;
58252;SDS011;44050;48.884;8.762;2023-01-08T06:37:40;3.13;;;1.02;;
58252;SDS011;44050;48.884;8.762;2023-01-08T06:40:11;1.20;;;0.90;;
58252;SDS011;44050;48.884;8.762;2023-01-08T06:42:42;0.50;;;0.50;;
58252;SDS011;44050;48.884;8.762;2023-01-08T06:45:14;0.47;;;0.40;;
58252;SDS011;44050;48.884;8.762;2023-01-08T06:47:44;2.08;;;0.68;;
58252;SDS011;44050;48.884;8.762;2023-01-08T06:50:15;0.35;;;0.30;;
58252;SDS011;44050;48.884;8.762;2023-01-08T06:52:52;0.50;;;0.50;;
58252;SDS011;44050;48.884;8.762;2023-01-08T06:55:24;0.30;;;0.30;;
58252;SDS011;44050;48.884;8.762;2023-01-08T06:57:55;0.45;;;0.45;;
58252;SDS011;44050;48.884;8.762;2023-01-08T07:00:27;0.22;;;0.22;;
58252;SDS011;44050;48.884;8.762;2023-01-08T07:02:58;1.50;;;0.60;;
58252;SDS011;44050;48.884;8.762;2023-01-08T07:05:28;0.30;;;0.30;;
58252;SDS011;44050;48.884;8.762;2023-01-08T07:07:59;0.40;;;0.40;;
58252;SDS011;44050;48.884;8.762;2023-01-08T07:10:30;0.75;;;0.75;;
58252;SDS011;44050;48.884;8.762;2023-01-08T07:13:01;0.68;;;0.68;;
58252;SDS011;44050;48.884;8.762;2023-01-08T07:15:31;1.17;;;0.60;;
58252;SDS011;44050;48.884;8.762;2023-01-08T07:18:03;0.43;;;0.43;;
58252;SDS011;44050;48.884;8.762;2023-01-08T07:20:35;0.47;;;0.47;;
58252;SDS011;44050;48.884;8.762;2023-01-08T07:23:07;0.20;;;0.20;;
58252;SDS011;44050;48.884;8.762;2023-01-08T07:25:38;0.50;;;0.50;;
58252;SDS011;44050;48.884;8.762;2023-01-08T07:28:10;0.32;;;0.32;;
58252;SDS011;44050;48.884;8.762;2023-01-08T07:30:42;0.30;;;0.30;;
58252;SDS011;44050;48.884;8.762;2023-01-08T07:33:14;0.65;;;0.60;;
58252;SDS011;44050;48.884;8.762;2023-01-08T07:35:51;7.97;;;0.95;;
58252;SDS011;44050;48.884;8.762;2023-01-08T07:38:22;0.52;;;0.52;;
58252;SDS011;44050;48.884;8.762;2023-01-08T07:40:53;0.30;;;0.30;;
58252;SDS011;44050;48.884;8.762;2023-01-08T07:43:24;0.22;;;0.22;;
58252;SDS011;44050;48.884;8.762;2023-01-08T07:48:27;0.60;;;0.30;;
58252;SDS011;44050;48.884;8.762;2023-01-08T07:51:04;0.50;;;0.50;;
58252;SDS011;44050;48.884;8.762;2023-01-08T07:53:36;0.80;;;0.80;;
58252;SDS011;44050;48.884;8.762;2023-01-08T07:56:07;0.43;;;0.43;;
58252;SDS011;44050;48.884;8.762;2023-01-08T08:01:09;0.37;;;0.37;;
58252;SDS011;44050;48.884;8.762;2023-01-08T08:03:40;0.95;;;0.68;;
58252;SDS011;44050;48.884;8.762;2023-01-08T08:06:11;4.10;;;3.60;;
58252;SDS011;44050;48.884;8.762;2023-01-08T08:08:42;2.20;;;1.90;;
58252;SDS011;44050;48.884;8.762;2023-01-08T08:11:12;1.92;;;1.30;;
58252;SDS011;44050;48.884;8.762;2023-01-08T08:13:43;1.73;;;1.42;;
58252;SDS011;44050;48.884;8.762;2023-01-08T08:16:14;1.30;;;1.05;;
58252;SDS011;44050;48.884;8.762;2023-01-08T08:18:45;2.00;;;0.70;;
58252;SDS011;44050;48.884;8.762;2023-01-08T08:21:15;0.70;;;0.70;;
58252;SDS011;44050;48.884;8.762;2023-01-08T08:23:46;0.75;;;0.50;;
58252;SDS011;44050;48.884;8.762;2023-01-08T08:26:17;0.30;;;0.30;;
58252;SDS011;44050;48.884;8.762;2023-01-08T08:28:48;0.22;;;0.22;;
58252;SDS011;44050;48.884;8.762;2023-01-08T08:31:19;0.25;;;0.25;;
58252;SDS011;44050;48.884;8.762;2023-01-08T08:33:49;0.60;;;0.60;;
58252;SDS011;44050;48.884;8.762;2023-01-08T08:36:20;0.57;;;0.57;;
58252;SDS011;44050;48.884;8.762;2023-01-08T08:38:56;0.80;;;0.80;;
58252;SDS011;44050;48.884;8.762;2023-01-08T08:41:27;0.95;;;0.50;;
58252;SDS011;44050;48.884;8.762;2023-01-08T08:43:58;0.52;;;0.38;;
58252;SDS011;44050;48.884;8.762;2023-01-08T08:46:29;0.20;;;0.20;;
58252;SDS011;44050;48.884;8.762;2023-01-08T08:49:00;0.40;;;0.40;;
58252;SDS011;44050;48.884;8.762;2023-01-08T08:51:32;0.63;;;0.32;;
58252;SDS011;44050;48.884;8.762;2023-01-08T08:54:03;0.38;;;0.38;;
58252;SDS011;44050;48.884;8.762;2023-01-08T08:56:34;0.38;;;0.38;;
58252;SDS011;44050;48.884;8.762;2023-01-08T08:59:04;1.38;;;0.82;;
58252;SDS011;44050;48.884;8.762;2023-01-08T09:01:35;0.52;;;0.52;;
58252;SDS011;44050;48.884;8.762;2023-01-08T09:04:06;0.63;;;0.63;;
58252;SDS011;44050;48.884;8.762;2023-01-08T09:06:37;0.52;;;0.52;;
58252;SDS011;44050;48.884;8.762;2023-01-08T09:09:07;0.17;;;0.17;;
58252;SDS011;44050;48.884;8.762;2023-01-08T09:11:38;0.47;;;0.38;;
58252;SDS011;44050;48.884;8.762;2023-01-08T09:14:09;0.20;;;0.20;;
58252;SDS011;44050;48.884;8.762;2023-01-08T09:16:40;0.95;;;0.88;;
58252;SDS011;44050;48.884;8.762;2023-01-08T09:19:10;0.32;;;0.32;;
58252;SDS011;44050;48.884;8.762;2023-01-08T09:21:41;0.28;;;0.28;;
58252;SDS011;44050;48.884;8.762;2023-01-08T09:24:12;0.38;;;0.38;;
58252;SDS011;44050;48.884;8.762;2023-01-08T09:26:43;0.20;;;0.20;;
58252;SDS011;44050;48.884;8.762;2023-01-08T09:29:14;0.20;;;0.20;;
58252;SDS011;44050;48.884;8.762;2023-01-08T09:31:44;0.40;;;0.40;;
58252;SDS011;44050;48.884;8.762;2023-01-08T09:36:46;0.20;;;0.20;;
58252;SDS011;44050;48.884;8.762;2023-01-08T09:39:17;0.52;;;0.47;;
58252;SDS011;44050;48.884;8.762;2023-01-08T09:41:48;0.88;;;0.50;;
58252;SDS011;44050;48.884;8.762;2023-01-08T09:44:21;0.60;;;0.60;;
58252;SDS011;44050;48.884;8.762;2023-01-08T09:46:55;0.45;;;0.30;;
58252;SDS011;44050;48.884;8.762;2023-01-08T09:49:32;0.25;;;0.22;;
58252;SDS011;44050;48.884;8.762;2023-01-08T09:52:08;0.30;;;0.30;;
58252;SDS011;44050;48.884;8.762;2023-01-08T09:54:39;2.28;;;0.80;;
58252;SDS011;44050;48.884;8.762;2023-01-08T09:57:15;0.20;;;0.20;;
58252;SDS011;44050;48.884;8.762;2023-01-08T09:59:47;0.20;;;0.20;;
58252;SDS011;44050;48.884;8.762;2023-01-08T10:02:19;0.40;;;0.40;;
58252;SDS011;44050;48.884;8.762;2023-01-08T10:04:57;0.40;;;0.40;;
58252;SDS011;44050;48.884;8.762;2023-01-08T10:07:38;0.35;;;0.30;;
58252;SDS011;44050;48.884;8.762;2023-01-08T10:12:46;0.22;;;0.22;;
58252;SDS011;44050;48.884;8.762;2023-01-08T10:15:18;0.88;;;0.55;;
58252;SDS011;44050;48.884;8.762;2023-01-08T10:18:31;0.40;;;0.40;;
58252;SDS011;44050;48.884;8.762;2023-01-08T10:20:43;0.52;;;0.30;;
58252;SDS011;44050;48.884;8.762;2023-01-08T10:23:14;0.40;;;0.30;;
58252;SDS011;44050;48.884;8.762;2023-01-08T10:28:25;0.52;;;0.47;;
58252;SDS011;44050;48.884;8.762;2023-01-08T10:31:14;0.40;;;0.40;;
58252;SDS011;44050;48.884;8.762;2023-01-08T10:33:49;0.30;;;0.17;;
58252;SDS011;44050;48.884;8.762;2023-01-08T10:36:22;0.32;;;0.32;;
58252;SDS011;44050;48.884;8.762;2023-01-08T10:38:59;0.63;;;0.63;;
58252;SDS011;44050;48.884;8.762;2023-01-08T10:41:35;0.63;;;0.63;;
58252;SDS011;44050;48.884;8.762;2023-01-08T10:44:06;1.38;;;0.80;;
58252;SDS011;44050;48.884;8.762;2023-01-08T10:46:44;0.30;;;0.30;;
58252;SDS011;44050;48.884;8.762;2023-01-08T10:51:49;0.30;;;0.30;;
58252;SDS011;44050;48.884;8.762;2023-01-08T10:54:33;0.28;;;0.28;;
58252;SDS011;44050;48.884;8.762;2023-01-08T10:59:54;0.65;;;0.65;;
58252;SDS011;44050;48.884;8.762;2023-01-08T11:04:55;1.17;;;0.77;;
58252;SDS011;44050;48.884;8.762;2023-01-08T11:07:27;0.45;;;0.32;;
58252;SDS011;44050;48.884;8.762;2023-01-08T11:09:58;0.60;;;0.60;;
58252;SDS011;44050;48.884;8.762;2023-01-08T11:12:33;1.45;;;1.35;;
58252;SDS011;44050;48.884;8.762;2023-01-08T11:15:27;1.95;;;1.33;;
58252;SDS011;44050;48.884;8.762;2023-01-08T11:18:03;0.98;;;0.98;;
58252;SDS011;44050;48.884;8.762;2023-01-08T11:20:34;1.85;;;1.75;;
58252;SDS011;44050;48.884;8.762;2023-01-08T11:23:05;1.60;;;1.50;;
58252;SDS011;44050;48.884;8.762;2023-01-08T11:25:36;0.93;;;0.70;;
58252;SDS011;44050;48.884;8.762;2023-01-08T11:28:10;0.50;;;0.50;;
58252;SDS011;44050;48.884;8.762;2023-01-08T11:30:46;0.40;;;0.40;;
58252;SDS011;44050;48.884;8.762;2023-01-08T11:33:22;0.95;;;0.73;;
58252;SDS011;44050;48.884;8.762;2023-01-08T11:35:58;0.40;;;0.40;;
58252;SDS011;44050;48.884;8.762;2023-01-08T11:38:30;0.40;;;0.40;;
58252;SDS011;44050;48.884;8.762;2023-01-08T11:41:23;0.50;;;0.50;;
58252;SDS011;44050;48.884;8.762;2023-01-08T11:46:31;0.40;;;0.40;;
58252;SDS011;44050;48.884;8.762;2023-01-08T11:57:56;0.25;;;0.25;;
58252;SDS011;44050;48.884;8.762;2023-01-08T12:03:33;0.17;;;0.10;;
58252;SDS011;44050;48.884;8.762;2023-01-08T12:06:26;0.10;;;0.10;;
58252;SDS011;44050;48.884;8.762;2023-01-08T12:11:52;0.43;;;0.43;;
58252;SDS011;44050;48.884;8.762;2023-01-08T12:17:58;0.20;;;0.20;;
58252;SDS011;44050;48.884;8.762;2023-01-08T12:20:41;0.30;;;0.25;;
58252;SDS011;44050;48.884;8.762;2023-01-08T12:43:04;0.10;;;0.10;;
58252;SDS011;44050;48.884;8.762;2023-01-08T12:45:41;0.10;;;0.10;;
58252;SDS011;44050;48.884;8.762;2023-01-08T12:48:14;0.35;;;0.20;;
58252;SDS011;44050;48.884;8.762;2023-01-08T12:53:33;0.15;;;0.15;;
58252;SDS011;44050;48.884;8.762;2023-01-08T12:56:29;0.50;;;0.50;;
58252;SDS011;44050;48.884;8.762;2023-01-08T13:01:42;0.32;;;0.20;;
58252;SDS011;44050;48.884;8.762;2023-01-08T13:04:16;0.20;;;0.20;;
58252;SDS011;44050;48.884;8.762;2023-01-08T13:07:02;0.30;;;0.20;;
58252;SDS011;44050;48.884;8.762;2023-01-08T13:09:34;0.43;;;0.13;;
58252;SDS011;44050;48.884;8.762;2023-01-08T13:12:05;0.40;;;0.40;;
58252;SDS011;44050;48.884;8.762;2023-01-08T13:14:40;0.40;;;0.40;;
58252;SDS011;44050;48.884;8.762;2023-01-08T13:17:17;0.70;;;0.70;;
58252;SDS011;44050;48.884;8.762;2023-01-08T13:20:19;0.10;;;0.10;;
58252;SDS011;44050;48.884;8.762;2023-01-08T13:22:53;0.32;;;0.30;;
58252;SDS011;44050;48.884;8.762;2023-01-08T13:28:44;0.45;;;0.43;;
58252;SDS011;44050;48.884;8.762;2023-01-08T13:31:28;1.42;;;0.32;;
58252;SDS011;44050;48.884;8.762;2023-01-08T13:37:42;0.55;;;0.20;;
58252;SDS011;44050;48.884;8.762;2023-01-08T13:43:10;0.38;;;0.30;;
58252;SDS011;44050;48.884;8.762;2023-01-08T13:46:18;0.25;;;0.13;;
58252;SDS011;44050;48.884;8.762;2023-01-08T13:49:09;0.10;;;0.10;;
58252;SDS011;44050;48.884;8.762;2023-01-08T13:54:41;0.30;;;0.30;;
58252;SDS011;44050;48.884;8.762;2023-01-08T13:57:14;0.17;;;0.17;;
58252;SDS011;44050;48.884;8.762;2023-01-08T13:59:47;0.20;;;0.20;;
58252;SDS011;44050;48.884;8.762;2023-01-08T14:02:33;0.00;;;0.00;;
58252;SDS011;44050;48.884;8.762;2023-01-08T14:05:22;0.10;;;0.10;;
58252;SDS011;44050;48.884;8.762;2023-01-08T14:07:59;0.40;;;0.40;;
58252;SDS011;44050;48.884;8.762;2023-01-08T14:10:30;0.35;;;0.20;;
58252;SDS011;44050;48.884;8.762;2023-01-08T14:13:06;0.65;;;0.10;;
58252;SDS011;44050;48.884;8.762;2023-01-08T14:15:40;0.17;;;0.17;;
58252;SDS011;44050;48.884;8.762;2023-01-08T14:18:18;0.10;;;0.10;;
58252;SDS011;44050;48.884;8.762;2023-01-08T14:20:49;0.10;;;0.10;;
58252;SDS011;44050;48.884;8.762;2023-01-08T14:23:22;0.63;;;0.30;;
58252;SDS011;44050;48.884;8.762;2023-01-08T14:26:05;0.25;;;0.25;;
58252;SDS011;44050;48.884;8.762;2023-01-08T14:28:50;0.20;;;0.20;;
58252;SDS011;44050;48.884;8.762;2023-01-08T14:31:26;0.30;;;0.30;;
58252;SDS011;44050;48.884;8.762;2023-01-08T14:34:00;0.40;;;0.28;;
58252;SDS011;44050;48.884;8.762;2023-01-08T14:36:31;0.80;;;0.40;;
58252;SDS011;44050;48.884;8.762;2023-01-08T14:39:10;0.20;;;0.20;;
58252;SDS011;44050;48.884;8.762;2023-01-08T14:41:42;0.30;;;0.30;;
58252;SDS011;44050;48.884;8.762;2023-01-08T14:45:43;0.52;;;0.40;;
58252;SDS011;44050;48.884;8.762;2023-01-08T14:48:08;1.60;;;1.00;;
58252;SDS011;44050;48.884;8.762;2023-01-08T14:50:41;1.85;;;1.10;;
58252;SDS011;44050;48.884;8.762;2023-01-08T14:56:06;2.95;;;0.88;;
58252;SDS011;44050;48.884;8.762;2023-01-08T14:58:40;2.20;;;1.67;;
58252;SDS011;44050;48.884;8.762;2023-01-08T15:04:18;1.25;;;1.00;;
58252;SDS011;44050;48.884;8.762;2023-01-08T15:07:17;5.40;;;3.88;;
58252;SDS011;44050;48.884;8.762;2023-01-08T15:10:21;1.85;;;1.75;;
58252;SDS011;44050;48.884;8.762;2023-01-08T15:12:56;1.77;;;1.63;;
58252;SDS011;44050;48.884;8.762;2023-01-08T15:15:30;0.98;;;0.85;;
58252;SDS011;44050;48.884;8.762;2023-01-08T15:18:05;0.90;;;0.88;;
58252;SDS011;44050;48.884;8.762;2023-01-08T15:24:02;0.50;;;0.50;;
58252;SDS011;44050;48.884;8.762;2023-01-08T15:26:40;0.80;;;0.80;;
58252;SDS011;44050;48.884;8.762;2023-01-08T15:29:21;0.63;;;0.60;;
58252;SDS011;44050;48.884;8.762;2023-01-08T15:34:55;0.77;;;0.75;;
58252;SDS011;44050;48.884;8.762;2023-01-08T15:37:26;2.85;;;0.85;;
58252;SDS011;44050;48.884;8.762;2023-01-08T15:40:07;0.50;;;0.45;;
58252;SDS011;44050;48.884;8.762;2023-01-08T15:42:44;0.95;;;0.90;;
58252;SDS011;44050;48.884;8.762;2023-01-08T15:45:34;0.45;;;0.45;;
58252;SDS011;44050;48.884;8.762;2023-01-08T15:48:21;1.25;;;0.98;;
58252;SDS011;44050;48.884;8.762;2023-01-08T15:50:54;0.25;;;0.20;;
58252;SDS011;44050;48.884;8.762;2023-01-08T15:53:27;0.57;;;0.57;;
58252;SDS011;44050;48.884;8.762;2023-01-08T15:56:01;0.60;;;0.60;;
58252;SDS011;44050;48.884;8.762;2023-01-08T15:58:32;0.45;;;0.45;;
58252;SDS011;44050;48.884;8.762;2023-01-08T16:01:15;0.90;;;0.90;;
58252;SDS011;44050;48.884;8.762;2023-01-08T16:03:47;3.17;;;1.58;;
58252;SDS011;44050;48.884;8.762;2023-01-08T16:06:24;2.13;;;1.48;;
58252;SDS011;44050;48.884;8.762;2023-01-08T16:09:01;2.17;;;2.08;;
58252;SDS011;44050;48.884;8.762;2023-01-08T16:11:52;1.30;;;1.20;;
58252;SDS011;44050;48.884;8.762;2023-01-08T16:14:23;1.73;;;1.63;;
58252;SDS011;44050;48.884;8.762;2023-01-08T16:16:54;1.40;;;1.30;;
58252;SDS011;44050;48.884;8.762;2023-01-08T16:19:36;1.95;;;1.85;;
58252;SDS011;44050;48.884;8.762;2023-01-08T16:22:11;2.17;;;2.08;;
58252;SDS011;44050;48.884;8.762;2023-01-08T16:24:42;2.58;;;1.92;;
58252;SDS011;44050;48.884;8.762;2023-01-08T16:27:14;1.35;;;1.25;;
58252;SDS011;44050;48.884;8.762;2023-01-08T16:29:45;1.00;;;0.98;;
58252;SDS011;44050;48.884;8.762;2023-01-08T16:32:28;7.22;;;1.83;;
58252;SDS011;44050;48.884;8.762;2023-01-08T16:35:01;1.50;;;1.27;;
58252;SDS011;44050;48.884;8.762;2023-01-08T16:37:32;4.10;;;3.15;;
58252;SDS011;44050;48.884;8.762;2023-01-08T16:42:38;1.73;;;1.63;;
58252;SDS011;44050;48.884;8.762;2023-01-08T16:45:10;3.35;;;3.05;;
58252;SDS011;44050;48.884;8.762;2023-01-08T16:47:41;1.50;;;1.38;;
58252;SDS011;44050;48.884;8.762;2023-01-08T16:50:40;1.75;;;1.13;;
58252;SDS011;44050;48.884;8.762;2023-01-08T16:53:16;1.73;;;1.48;;
58252;SDS011;44050;48.884;8.762;2023-01-08T16:55:51;0.60;;;0.60;;
58252;SDS011;44050;48.884;8.762;2023-01-08T17:00:54;1.80;;;1.40;;
58252;SDS011;44050;48.884;8.762;2023-01-08T17:03:29;0.82;;;0.82;;
58252;SDS011;44050;48.884;8.762;2023-01-08T17:06:04;3.55;;;1.42;;
58252;SDS011;44050;48.884;8.762;2023-01-08T17:08:35;1.17;;;1.08;;
58252;SDS011;44050;48.884;8.762;2023-01-08T17:11:16;3.85;;;1.10;;
58252;SDS011;44050;48.884;8.762;2023-01-08T17:13:52;1.75;;;1.30;;
58252;SDS011;44050;48.884;8.762;2023-01-08T17:16:26;0.60;;;0.60;;
58252;SDS011;44050;48.884;8.762;2023-01-08T17:19:03;1.30;;;1.20;;
58252;SDS011;44050;48.884;8.762;2023-01-08T17:21:37;1.07;;;0.97;;
58252;SDS011;44050;48.884;8.762;2023-01-08T17:24:18;1.02;;;0.98;;
58252;SDS011;44050;48.884;8.762;2023-01-08T17:26:52;1.70;;;1.60;;
58252;SDS011;44050;48.884;8.762;2023-01-08T17:29:23;1.08;;;1.08;;
58252;SDS011;44050;48.884;8.762;2023-01-08T17:31:54;0.75;;;0.75;;
58252;SDS011;44050;48.884;8.762;2023-01-08T17:34:26;0.73;;;0.73;;
58252;SDS011;44050;48.884;8.762;2023-01-08T17:36:58;0.77;;;0.77;;